Time;durP1;ratioP1;P1;durP2;ratioP2;P2;SDS_P1;SDS_P2;PMS_P1;PMS_P2;Temp;Humidity;BMP_temperature;BMP_pressure;BME280_temperature;BME280_humidity;BME280_pressure;Samples;Min_cycle;Max_cycle;Signal;HPM_P1;HPM_P2
2022/08/19 00:01:52;;;;;;;13.80;11.25;;;;;;;;;;5004241;28;20485;-69
2022/08/19 00:04:19;;;;;;;14.73;11.23;;;;;;;;;;5006359;28;20046;-69
2022/08/19 00:06:46;;;;;;;13.90;10.95;;;;;;;;;;5007510;28;20646;-69
2022/08/19 00:09:14;;;;;;;14.52;11.60;;;;;;;;;;5010506;28;20041;-69
2022/08/19 00:11:40;;;;;;;13.95;11.40;;;;;;;;;;5007058;28;20034;-69
2022/08/19 00:14:09;;;;;;;13.75;11.77;;;;;;;;;;5010241;28;20093;-69
2022/08/19 00:16:35;;;;;;;14.02;10.85;;;;;;;;;;5012664;28;20030;-69
2022/08/19 00:19:01;;;;;;;14.88;11.35;;;;;;;;;;5012125;28;20038;-69
2022/08/19 00:21:27;;;;;;;16.05;11.43;;;;;;;;;;5010963;28;20103;-69
2022/08/19 00:23:53;;;;;;;13.25;11.52;;;;;;;;;;5010542;28;20486;-68
2022/08/19 00:26:19;;;;;;;16.42;10.77;;;;;;;;;;5011769;28;20049;-69
2022/08/19 00:28:45;;;;;;;13.98;12.13;;;;;;;;;;5010537;28;20037;-70
2022/08/19 00:31:11;;;;;;;13.60;11.10;;;;;;;;;;5013868;28;20033;-70
2022/08/19 00:33:36;;;;;;;13.25;11.52;;;;;;;;;;5013875;28;20041;-69
2022/08/19 00:36:06;;;;;;;14.75;11.93;;;;;;;;;;5009656;28;20417;-69
2022/08/19 00:38:32;;;;;;;15.27;11.98;;;;;;;;;;5007478;28;20030;-69
2022/08/19 00:40:58;;;;;;;15.15;12.13;;;;;;;;;;5007915;28;21039;-70
2022/08/19 00:43:26;;;;;;;15.00;11.52;;;;;;;;;;5010218;28;20575;-70
2022/08/19 00:45:53;;;;;;;16.45;11.93;;;;;;;;;;5008847;28;20066;-69
2022/08/19 00:48:20;;;;;;;14.70;12.48;;;;;;;;;;5010754;28;21381;-70
2022/08/19 00:50:48;;;;;;;15.88;12.60;;;;;;;;;;5011984;28;20968;-70
2022/08/19 00:53:18;;;;;;;15.93;12.43;;;;;;;;;;5010025;28;20041;-69
2022/08/19 00:55:50;;;;;;;14.75;11.25;;;;;;;;;;5008439;28;20048;-69
2022/08/19 00:58:19;;;;;;;14.02;12.02;;;;;;;;;;5009567;28;20038;-69
2022/08/19 01:00:47;;;;;;;16.58;12.52;;;;;;;;;;5009347;28;20746;-70
2022/08/19 01:03:16;;;;;;;14.48;12.07;;;;;;;;;;5009116;28;20105;-71
2022/08/19 01:05:43;;;;;;;14.45;12.15;;;;;;;;;;5007206;28;20034;-70
2022/08/19 01:08:10;;;;;;;17.02;12.18;;;;;;;;;;5009264;28;20115;-70
2022/08/19 01:10:52;;;;;;;15.32;11.63;;;;;;;;;;5007784;28;20470;-71
2022/08/19 01:13:23;;;;;;;16.95;11.75;;;;;;;;;;5007994;28;20208;-71
2022/08/19 01:15:53;;;;;;;12.55;11.23;;;;;;;;;;5008778;28;20129;-70
2022/08/19 01:18:20;;;;;;;14.23;11.52;;;;;;;;;;5008500;28;20042;-71
2022/08/19 01:20:46;;;;;;;13.45;10.63;;;;;;;;;;5008343;28;20077;-71
2022/08/19 01:23:12;;;;;;;13.60;11.40;;;;;;;;;;5008064;28;20045;-71
2022/08/19 01:25:43;;;;;;;13.52;10.93;;;;;;;;;;5007814;28;20390;-70
2022/08/19 01:28:19;;;;;;;16.33;11.30;;;;;;;;;;5004592;28;20057;-70
2022/08/19 01:30:45;;;;;;;13.38;11.30;;;;;;;;;;5010986;28;20034;-71
2022/08/19 01:33:10;;;;;;;13.25;10.75;;;;;;;;;;5007144;28;20048;-71
2022/08/19 01:35:36;;;;;;;14.82;11.90;;;;;;;;;;5009641;28;20136;-70
2022/08/19 01:38:09;;;;;;;16.42;11.60;;;;;;;;;;5006723;28;20102;-70
2022/08/19 01:40:38;;;;;;;15.30;12.27;;;;;;;;;;5010867;28;20032;-70
2022/08/19 01:43:05;;;;;;;14.35;12.38;;;;;;;;;;5006685;28;20070;-70
2022/08/19 01:45:33;;;;;;;22.40;12.88;;;;;;;;;;5011264;28;20131;-70
2022/08/19 01:47:59;;;;;;;16.02;12.32;;;;;;;;;;5008111;28;20529;-71
2022/08/19 01:50:25;;;;;;;15.40;12.25;;;;;;;;;;5009734;28;20193;-72
2022/08/19 01:52:51;;;;;;;17.92;13.77;;;;;;;;;;5008683;28;20030;-72
2022/08/19 01:55:21;;;;;;;17.75;13.10;;;;;;;;;;5008002;28;20132;-68
2022/08/19 01:57:51;;;;;;;17.20;13.27;;;;;;;;;;5009710;28;20042;-71
2022/08/19 02:00:19;;;;;;;16.65;13.50;;;;;;;;;;5005431;28;20042;-70
2022/08/19 02:02:44;;;;;;;15.90;13.05;;;;;;;;;;5008085;28;20375;-71
2022/08/19 02:05:11;;;;;;;16.33;12.38;;;;;;;;;;5005317;28;20084;-71
2022/08/19 02:07:39;;;;;;;15.73;12.55;;;;;;;;;;5006091;28;20036;-71
2022/08/19 02:10:10;;;;;;;14.43;12.32;;;;;;;;;;5004503;28;20041;-71
2022/08/19 02:12:36;;;;;;;16.13;12.82;;;;;;;;;;5002652;28;20034;-71
2022/08/19 02:15:02;;;;;;;14.88;11.52;;;;;;;;;;5007042;28;20041;-72
2022/08/19 02:17:29;;;;;;;16.00;12.38;;;;;;;;;;5006843;28;20125;-70
2022/08/19 02:19:56;;;;;;;20.65;11.68;;;;;;;;;;5004745;28;20190;-70
2022/08/19 02:22:22;;;;;;;14.73;11.95;;;;;;;;;;5006834;28;20030;-70
2022/08/19 02:24:48;;;;;;;15.13;12.00;;;;;;;;;;5006027;28;20121;-71
2022/08/19 02:27:14;;;;;;;15.52;11.07;;;;;;;;;;5006192;28;20581;-71
2022/08/19 02:29:39;;;;;;;16.38;11.60;;;;;;;;;;5004237;28;20125;-71
2022/08/19 02:32:04;;;;;;;12.88;10.95;;;;;;;;;;5007572;28;20183;-71
2022/08/19 02:34:30;;;;;;;13.70;11.50;;;;;;;;;;5007137;28;20026;-70
2022/08/19 02:36:55;;;;;;;14.10;11.85;;;;;;;;;;5006012;28;20268;-71
2022/08/19 02:39:21;;;;;;;12.98;11.57;;;;;;;;;;5005998;28;20061;-70
2022/08/19 02:41:46;;;;;;;13.85;12.02;;;;;;;;;;5003971;28;20049;-70
2022/08/19 02:44:12;;;;;;;13.52;11.23;;;;;;;;;;5004401;28;20033;-70
2022/08/19 02:46:37;;;;;;;12.88;11.25;;;;;;;;;;5004127;28;20088;-71
2022/08/19 02:49:07;;;;;;;14.52;11.55;;;;;;;;;;5006457;28;20080;-71
2022/08/19 02:51:38;;;;;;;12.75;10.77;;;;;;;;;;5004914;28;20049;-71
2022/08/19 02:54:05;;;;;;;15.60;11.15;;;;;;;;;;5004410;28;20045;-70
2022/08/19 02:56:31;;;;;;;14.20;11.52;;;;;;;;;;5003614;28;20050;-70
2022/08/19 02:58:57;;;;;;;12.07;10.70;;;;;;;;;;5005148;28;20037;-70
2022/08/19 03:01:24;;;;;;;13.00;11.55;;;;;;;;;;5004821;28;20615;-69
2022/08/19 03:03:50;;;;;;;14.38;10.82;;;;;;;;;;5004987;28;20069;-71
2022/08/19 03:06:16;;;;;;;14.25;11.70;;;;;;;;;;5006061;28;20055;-71
2022/08/19 03:08:44;;;;;;;14.20;11.27;;;;;;;;;;5005576;28;20059;-71
2022/08/19 03:11:39;;;;;;;12.73;11.00;;;;;;;;;;5007297;28;20026;-71
2022/08/19 03:14:07;;;;;;;17.92;12.55;;;;;;;;;;4996746;28;20042;-71
2022/08/19 03:16:40;;;;;;;14.68;11.00;;;;;;;;;;5005692;28;20057;-69
2022/08/19 03:19:05;;;;;;;14.15;11.02;;;;;;;;;;5006295;28;20577;-70
2022/08/19 03:21:32;;;;;;;14.27;11.02;;;;;;;;;;5005896;28;20132;-70
2022/08/19 03:24:00;;;;;;;18.73;11.68;;;;;;;;;;5003667;28;20863;-70
2022/08/19 03:26:26;;;;;;;16.00;11.27;;;;;;;;;;5004876;28;20046;-71
2022/08/19 03:28:51;;;;;;;14.48;11.50;;;;;;;;;;5003603;28;20034;-71
2022/08/19 03:31:19;;;;;;;11.68;10.45;;;;;;;;;;5003018;28;20049;-71
2022/08/19 03:33:45;;;;;;;12.38;10.85;;;;;;;;;;5004755;28;20052;-71
2022/08/19 03:36:18;;;;;;;13.82;10.85;;;;;;;;;;5003949;28;20041;-70
2022/08/19 03:38:48;;;;;;;13.63;11.23;;;;;;;;;;5006391;28;20117;-71
2022/08/19 03:41:17;;;;;;;12.48;10.77;;;;;;;;;;5002881;28;20046;-70
2022/08/19 03:43:46;;;;;;;13.73;11.60;;;;;;;;;;5007610;28;20025;-70
2022/08/19 03:46:14;;;;;;;15.35;12.13;;;;;;;;;;5004968;28;20052;-70
2022/08/19 03:48:42;;;;;;;12.55;11.02;;;;;;;;;;5005631;28;20049;-70
2022/08/19 03:51:14;;;;;;;14.07;11.35;;;;;;;;;;4999596;28;20038;-72
2022/08/19 03:53:40;;;;;;;12.75;10.88;;;;;;;;;;5006408;28;20049;-71
2022/08/19 03:56:09;;;;;;;12.90;11.25;;;;;;;;;;5002645;28;20044;-71
2022/08/19 03:58:34;;;;;;;14.55;11.45;;;;;;;;;;5004461;28;20030;-71
2022/08/19 04:00:59;;;;;;;13.73;10.88;;;;;;;;;;5002878;28;20552;-70
2022/08/19 04:03:26;;;;;;;12.32;11.13;;;;;;;;;;5002949;28;20591;-71
2022/08/19 04:05:53;;;;;;;12.82;11.43;;;;;;;;;;5006759;28;20046;-71
2022/08/19 04:08:22;;;;;;;14.18;11.65;;;;;;;;;;5003887;28;20037;-71
2022/08/19 04:10:48;;;;;;;13.18;11.38;;;;;;;;;;5004093;28;20493;-70
2022/08/19 04:13:16;;;;;;;13.15;11.05;;;;;;;;;;5003908;28;20037;-71
2022/08/19 04:15:44;;;;;;;12.88;11.32;;;;;;;;;;5004445;28;20030;-70
2022/08/19 04:18:10;;;;;;;13.05;10.68;;;;;;;;;;5003240;28;20046;-71
2022/08/19 04:20:44;;;;;;;13.25;11.00;;;;;;;;;;5003682;28;20575;-72
2022/08/19 04:23:10;;;;;;;17.52;10.88;;;;;;;;;;5002463;28;20034;-71
2022/08/19 04:25:40;;;;;;;14.10;10.98;;;;;;;;;;5005438;28;20025;-71
2022/08/19 04:28:07;;;;;;;13.30;10.75;;;;;;;;;;5002020;28;20617;-70
2022/08/19 04:30:42;;;;;;;12.07;10.65;;;;;;;;;;5004524;28;20041;-71
2022/08/19 04:33:08;;;;;;;20.92;12.23;;;;;;;;;;5003540;28;20038;-70
2022/08/19 04:35:41;;;;;;;15.02;11.57;;;;;;;;;;5003070;28;20049;-71
2022/08/19 04:38:07;;;;;;;12.70;10.25;;;;;;;;;;5004291;28;20048;-71
2022/08/19 04:43:17;;;;;;;12.50;10.48;;;;;;;;;;5002764;28;20651;-70
2022/08/19 04:45:44;;;;;;;13.30;11.68;;;;;;;;;;5003698;28;20046;-70
2022/08/19 04:48:10;;;;;;;13.48;10.73;;;;;;;;;;5003012;28;20405;-69
2022/08/19 04:50:36;;;;;;;14.15;10.98;;;;;;;;;;5004485;28;20085;-70
2022/08/19 04:53:01;;;;;;;13.77;10.70;;;;;;;;;;5000814;28;20678;-69
2022/08/19 04:55:27;;;;;;;12.88;9.80;;;;;;;;;;5006492;28;20056;-71
2022/08/19 04:57:55;;;;;;;16.48;10.95;;;;;;;;;;5007304;28;20049;-71
2022/08/19 05:00:21;;;;;;;13.18;10.45;;;;;;;;;;5006484;28;20034;-71
2022/08/19 05:02:48;;;;;;;13.05;10.20;;;;;;;;;;5007955;28;20104;-70
2022/08/19 05:05:14;;;;;;;13.57;10.38;;;;;;;;;;5005555;28;20129;-70
2022/08/19 05:07:40;;;;;;;12.57;10.18;;;;;;;;;;5008544;28;20109;-70
2022/08/19 05:10:07;;;;;;;11.13;9.88;;;;;;;;;;5003787;28;20049;-70
2022/08/19 05:12:33;;;;;;;13.98;9.68;;;;;;;;;;5008704;28;20096;-70
2022/08/19 05:15:00;;;;;;;12.95;10.07;;;;;;;;;;5007471;28;20378;-70
2022/08/19 05:17:26;;;;;;;13.00;9.52;;;;;;;;;;5007243;28;20046;-70
2022/08/19 05:22:36;;;;;;;13.75;9.00;;;;;;;;;;5007700;28;20037;-70
2022/08/19 05:25:11;;;;;;;12.18;9.93;;;;;;;;;;5006497;28;20038;-70
2022/08/19 05:27:37;;;;;;;11.65;9.48;;;;;;;;;;5005037;28;20056;-70
2022/08/19 05:30:03;;;;;;;15.10;9.10;;;;;;;;;;5007450;28;20038;-69
2022/08/19 05:32:30;;;;;;;10.73;9.27;;;;;;;;;;5009622;28;20120;-69
2022/08/19 05:34:55;;;;;;;11.05;8.90;;;;;;;;;;5004478;28;20165;-69
2022/08/19 05:37:21;;;;;;;13.25;9.70;;;;;;;;;;5006977;28;20121;-69
2022/08/19 05:39:48;;;;;;;14.45;9.43;;;;;;;;;;5007333;28;20046;-71
2022/08/19 05:42:14;;;;;;;10.25;9.15;;;;;;;;;;5007922;28;20041;-70
2022/08/19 05:44:43;;;;;;;13.02;9.82;;;;;;;;;;5003271;28;20053;-70
2022/08/19 05:47:10;;;;;;;10.85;9.20;;;;;;;;;;5006112;28;20112;-70
2022/08/19 05:49:37;;;;;;;10.15;8.57;;;;;;;;;;5004344;28;20449;-70
2022/08/19 05:52:08;;;;;;;10.40;8.60;;;;;;;;;;5004314;28;20505;-70
2022/08/19 05:54:35;;;;;;;12.55;9.32;;;;;;;;;;5002241;28;20140;-70
2022/08/19 05:57:02;;;;;;;13.63;8.75;;;;;;;;;;5006094;28;20041;-70
2022/08/19 05:59:28;;;;;;;12.70;8.48;;;;;;;;;;5003137;28;20065;-70
2022/08/19 06:01:55;;;;;;;10.38;9.23;;;;;;;;;;5006529;28;20065;-70
2022/08/19 06:04:21;;;;;;;12.68;8.32;;;;;;;;;;5004142;28;20057;-70
2022/08/19 06:06:50;;;;;;;9.43;8.40;;;;;;;;;;5007235;28;20038;-70
2022/08/19 06:09:16;;;;;;;10.93;8.68;;;;;;;;;;5004108;28;20133;-70
2022/08/19 06:11:45;;;;;;;13.75;8.88;;;;;;;;;;5005048;28;20148;-70
2022/08/19 06:14:14;;;;;;;9.20;7.25;;;;;;;;;;5005061;28;20057;-70
2022/08/19 06:16:41;;;;;;;10.48;7.30;;;;;;;;;;5015263;28;20038;-70
2022/08/19 06:19:11;;;;;;;11.07;7.57;;;;;;;;;;5005496;28;20073;-71
2022/08/19 06:21:38;;;;;;;11.77;6.82;;;;;;;;;;5004180;28;20212;-71
2022/08/19 06:24:06;;;;;;;13.32;7.90;;;;;;;;;;5003548;28;20042;-71
2022/08/19 06:26:38;;;;;;;9.60;7.75;;;;;;;;;;5008970;28;20041;-70
2022/08/19 06:29:06;;;;;;;11.68;7.90;;;;;;;;;;5005744;28;21293;-70
2022/08/19 06:31:33;;;;;;;9.63;7.55;;;;;;;;;;5005582;28;20025;-70
2022/08/19 06:34:02;;;;;;;16.73;8.18;;;;;;;;;;5005791;28;20087;-70
2022/08/19 06:36:33;;;;;;;10.23;6.93;;;;;;;;;;5006378;28;20038;-70
2022/08/19 06:38:59;;;;;;;7.55;6.85;;;;;;;;;;5004304;28;20038;-69
2022/08/19 06:41:26;;;;;;;8.27;6.78;;;;;;;;;;5001784;28;20628;-69
2022/08/19 06:43:52;;;;;;;12.27;6.78;;;;;;;;;;5002950;28;20034;-68
2022/08/19 06:46:19;;;;;;;9.85;7.60;;;;;;;;;;5003171;28;20660;-69
2022/08/19 06:48:45;;;;;;;10.48;7.15;;;;;;;;;;5002193;28;20521;-69
2022/08/19 06:51:15;;;;;;;8.85;6.93;;;;;;;;;;5002959;28;20049;-69
2022/08/19 06:53:41;;;;;;;8.43;7.00;;;;;;;;;;5005442;28;20049;-69
2022/08/19 06:56:06;;;;;;;9.52;6.40;;;;;;;;;;5001622;28;20045;-71
2022/08/19 06:58:32;;;;;;;10.88;7.03;;;;;;;;;;5002856;28;20025;-71
2022/08/19 07:01:00;;;;;;;11.32;7.13;;;;;;;;;;5005515;28;20060;-70
2022/08/19 07:03:28;;;;;;;11.65;7.30;;;;;;;;;;5004079;28;20121;-72
2022/08/19 07:05:54;;;;;;;11.63;7.75;;;;;;;;;;5006256;28;20038;-70
2022/08/19 07:08:19;;;;;;;14.20;8.02;;;;;;;;;;5006358;28;20072;-70
2022/08/19 07:10:45;;;;;;;11.60;7.65;;;;;;;;;;5003926;28;20030;-70
2022/08/19 07:13:11;;;;;;;10.40;7.18;;;;;;;;;;5004829;28;20034;-70
2022/08/19 07:15:37;;;;;;;11.60;7.13;;;;;;;;;;5003472;28;20379;-69
2022/08/19 07:18:03;;;;;;;9.68;7.60;;;;;;;;;;5003887;28;20494;-70
2022/08/19 07:20:28;;;;;;;11.70;8.80;;;;;;;;;;5004757;28;20041;-70
2022/08/19 07:22:53;;;;;;;10.98;7.03;;;;;;;;;;5004867;28;20087;-70
2022/08/19 07:25:20;;;;;;;12.02;7.20;;;;;;;;;;5002171;28;20474;-71
2022/08/19 07:27:49;;;;;;;10.95;7.07;;;;;;;;;;5005942;28;20140;-71
2022/08/19 07:30:14;;;;;;;10.52;7.47;;;;;;;;;;5004688;28;20400;-70
2022/08/19 07:32:40;;;;;;;11.63;7.70;;;;;;;;;;5007915;28;20041;-70
2022/08/19 07:35:07;;;;;;;8.82;7.00;;;;;;;;;;5006901;28;20037;-70
2022/08/19 07:37:32;;;;;;;9.55;6.80;;;;;;;;;;5000671;28;20121;-70
2022/08/19 07:39:57;;;;;;;12.10;6.30;;;;;;;;;;5005478;28;20132;-70
2022/08/19 07:42:23;;;;;;;10.40;6.88;;;;;;;;;;5004062;28;20049;-70
2022/08/19 07:44:48;;;;;;;14.23;7.82;;;;;;;;;;5004327;28;20046;-70
2022/08/19 07:47:15;;;;;;;10.93;7.30;;;;;;;;;;5008360;28;20045;-71
2022/08/19 07:49:41;;;;;;;9.50;7.57;;;;;;;;;;5007294;28;20029;-71
2022/08/19 07:52:09;;;;;;;9.15;7.47;;;;;;;;;;5006209;28;20073;-70
2022/08/19 07:54:37;;;;;;;8.00;6.63;;;;;;;;;;5004863;28;20064;-71
2022/08/19 07:57:03;;;;;;;11.48;7.28;;;;;;;;;;5008119;28;20076;-70
2022/08/19 07:59:29;;;;;;;13.13;7.57;;;;;;;;;;5004432;28;20034;-70
2022/08/19 08:01:55;;;;;;;11.93;7.85;;;;;;;;;;5009210;28;20048;-70
2022/08/19 08:09:51;;;;;;;12.15;9.60;;;;;;;;;;5006992;28;20061;-70
2022/08/19 08:12:24;;;;;;;11.57;9.13;;;;;;;;;;5005498;28;20046;-72
2022/08/19 08:14:53;;;;;;;12.15;9.63;;;;;;;;;;5006322;28;20386;-71
2022/08/19 08:17:21;;;;;;;15.48;12.52;;;;;;;;;;5000215;28;20057;-69
2022/08/19 08:19:49;;;;;;;13.80;11.98;;;;;;;;;;5008123;28;20064;-70
2022/08/19 08:25:08;;;;;;;17.55;13.13;;;;;;;;;;5003352;28;20049;-70
2022/08/19 08:27:40;;;;;;;;;;;;;;;;;;5004452;28;20033;-67
2022/08/19 08:30:11;;;;;;;17.08;11.50;;;;;;;;;;5010722;28;19921;-69
2022/08/19 08:32:39;;;;;;;14.43;11.20;;;;;;;;;;5007694;28;20158;-70
2022/08/19 08:35:16;;;;;;;13.20;9.75;;;;;;;;;;5009988;28;20022;-69
2022/08/19 08:37:43;;;;;;;16.30;11.20;;;;;;;;;;5010253;28;20025;-70
2022/08/19 08:40:20;;;;;;;14.65;12.15;;;;;;;;;;5008933;28;20050;-70
2022/08/19 08:42:54;;;;;;;17.35;13.52;;;;;;;;;;5006252;28;20035;-72
2022/08/19 08:45:20;;;;;;;17.77;13.43;;;;;;;;;;5006225;28;20050;-69
2022/08/19 08:47:49;;;;;;;14.57;12.10;;;;;;;;;;5008862;28;20112;-70
2022/08/19 08:50:27;;;;;;;14.48;11.82;;;;;;;;;;5005438;28;20062;-69
2022/08/19 08:52:56;;;;;;;12.73;10.15;;;;;;;;;;5009503;28;20030;-69
2022/08/19 08:55:26;;;;;;;14.77;9.85;;;;;;;;;;5007693;28;20029;-70
2022/08/19 08:57:59;;;;;;;10.27;9.02;;;;;;;;;;5007234;28;20121;-69
2022/08/19 09:00:27;;;;;;;10.23;8.35;;;;;;;;;;5008006;28;20049;-69
2022/08/19 09:02:54;;;;;;;11.95;9.60;;;;;;;;;;5009152;28;20533;-69
2022/08/19 09:05:21;;;;;;;9.82;8.32;;;;;;;;;;5006104;28;20141;-70
2022/08/19 09:07:47;;;;;;;10.82;9.27;;;;;;;;;;5010837;28;20462;-70
2022/08/19 09:10:36;;;;;;;10.60;9.05;;;;;;;;;;5007617;28;20119;-69
2022/08/19 09:13:31;;;;;;;12.63;8.15;;;;;;;;;;5008138;28;20046;-69
2022/08/19 09:16:26;;;;;;;11.40;7.97;;;;;;;;;;5006525;28;20044;-68
2022/08/19 09:19:00;;;;;;;8.77;7.97;;;;;;;;;;4999243;28;20157;-69
2022/08/19 09:21:27;;;;;;;12.25;7.40;;;;;;;;;;5007994;28;20038;-69
2022/08/19 09:23:53;;;;;;;8.68;7.70;;;;;;;;;;5006724;28;20092;-69
2022/08/19 09:26:22;;;;;;;10.35;8.90;;;;;;;;;;5009007;28;20607;-68
2022/08/19 09:28:50;;;;;;;11.65;9.27;;;;;;;;;;5009424;28;20038;-68
2022/08/19 09:31:21;;;;;;;11.52;10.30;;;;;;;;;;5004126;28;20079;-69
2022/08/19 09:33:47;;;;;;;13.55;10.30;;;;;;;;;;4981810;28;20307;-70
2022/08/19 09:36:16;;;;;;;12.50;11.30;;;;;;;;;;4967287;28;20039;-70
2022/08/19 09:38:42;;;;;;;12.95;11.63;;;;;;;;;;4969065;28;20081;-70
2022/08/19 09:41:13;;;;;;;11.93;10.15;;;;;;;;;;4969749;28;20034;-69
2022/08/19 09:43:40;;;;;;;14.57;10.20;;;;;;;;;;4967046;28;20041;-69
2022/08/19 09:46:09;;;;;;;12.50;10.57;;;;;;;;;;4968627;28;20054;-69
2022/08/19 09:48:38;;;;;;;11.30;9.63;;;;;;;;;;4966514;28;20051;-70
2022/08/19 09:51:16;;;;;;;10.95;9.27;;;;;;;;;;4966498;28;20031;-69
2022/08/19 09:53:43;;;;;;;12.45;10.05;;;;;;;;;;4963301;28;20070;-70
2022/08/19 09:56:09;;;;;;;11.07;8.20;;;;;;;;;;4966120;28;20486;-69
2022/08/19 09:58:36;;;;;;;10.95;8.63;;;;;;;;;;4965777;28;20085;-69
2022/08/19 10:01:04;;;;;;;9.55;8.55;;;;;;;;;;4967113;28;20042;-69
2022/08/19 10:03:30;;;;;;;15.90;7.30;;;;;;;;;;4968572;28;20098;-69
2022/08/19 10:05:58;;;;;;;8.13;6.93;;;;;;;;;;4968247;28;20085;-69
2022/08/19 10:08:31;;;;;;;8.45;7.40;;;;;;;;;;4952267;28;20077;-69
2022/08/19 10:10:57;;;;;;;8.32;7.07;;;;;;;;;;4966906;28;20080;-68
2022/08/19 10:13:26;;;;;;;7.60;6.90;;;;;;;;;;4964422;28;20525;-68
2022/08/19 10:15:53;;;;;;;6.65;6.05;;;;;;;;;;4966277;28;20188;-69
2022/08/19 10:18:20;;;;;;;8.63;6.13;;;;;;;;;;4967659;28;20514;-69
2022/08/19 10:20:47;;;;;;;7.10;6.35;;;;;;;;;;4965082;28;20057;-69
2022/08/19 10:23:14;;;;;;;8.02;6.45;;;;;;;;;;4951185;28;20105;-69
2022/08/19 10:25:40;;;;;;;6.07;5.47;;;;;;;;;;4967321;28;20031;-70
2022/08/19 10:28:06;;;;;;;7.07;5.20;;;;;;;;;;4965087;28;20067;-69
2022/08/19 10:30:32;;;;;;;8.63;5.22;;;;;;;;;;4966985;28;20125;-69
2022/08/19 10:32:57;;;;;;;6.80;5.40;;;;;;;;;;4968066;28;20051;-68
2022/08/19 10:35:24;;;;;;;7.38;5.43;;;;;;;;;;4965697;28;20042;-68
2022/08/19 10:37:50;;;;;;;7.15;5.00;;;;;;;;;;4966196;28;20037;-69
2022/08/19 10:40:15;;;;;;;7.50;5.20;;;;;;;;;;4966769;28;20039;-69
2022/08/19 10:42:40;;;;;;;8.20;4.80;;;;;;;;;;4967689;28;20100;-68
2022/08/19 10:45:06;;;;;;;4.90;4.25;;;;;;;;;;4966271;28;20245;-68
2022/08/19 10:47:34;;;;;;;6.80;5.57;;;;;;;;;;4948856;28;20050;-68
2022/08/19 10:52:47;;;;;;;7.72;5.30;;;;;;;;;;4966873;28;20046;-69
2022/08/19 10:57:57;;;;;;;7.40;4.88;;;;;;;;;;4968042;28;20046;-70
2022/08/19 11:00:24;;;;;;;5.20;4.70;;;;;;;;;;4967670;28;20131;-70
2022/08/19 11:02:49;;;;;;;5.40;4.65;;;;;;;;;;4966586;28;20046;-70
2022/08/19 11:05:16;;;;;;;4.57;4.18;;;;;;;;;;4961193;28;20522;-69
2022/08/19 11:07:42;;;;;;;7.20;4.80;;;;;;;;;;4965960;28;20033;-69
2022/08/19 11:10:10;;;;;;;3.85;3.47;;;;;;;;;;4969442;28;20399;-68
2022/08/19 11:12:39;;;;;;;3.95;3.40;;;;;;;;;;4967286;28;20140;-69
2022/08/19 11:15:07;;;;;;;4.72;3.83;;;;;;;;;;4962721;28;20030;-68
2022/08/19 11:17:33;;;;;;;5.18;3.83;;;;;;;;;;4963102;28;20039;-70
2022/08/19 11:20:01;;;;;;;5.85;3.72;;;;;;;;;;4966412;28;20368;-70
2022/08/19 11:22:27;;;;;;;4.85;4.10;;;;;;;;;;4961946;28;20497;-70
2022/08/19 11:24:52;;;;;;;5.78;4.07;;;;;;;;;;4965165;28;20039;-70
2022/08/19 11:27:18;;;;;;;3.70;3.40;;;;;;;;;;4962666;28;20553;-69
2022/08/19 11:29:44;;;;;;;3.95;3.45;;;;;;;;;;4967366;28;20047;-69
2022/08/19 11:32:10;;;;;;;4.63;4.05;;;;;;;;;;4964064;28;20022;-69
2022/08/19 11:34:36;;;;;;;5.50;4.10;;;;;;;;;;4966622;28;20057;-69
2022/08/19 11:37:03;;;;;;;4.25;3.85;;;;;;;;;;4966703;28;20113;-69
2022/08/19 11:39:32;;;;;;;4.35;3.85;;;;;;;;;;4965318;28;20383;-69
2022/08/19 11:41:58;;;;;;;4.45;3.92;;;;;;;;;;4965059;28;20042;-69
2022/08/19 11:44:25;;;;;;;4.40;3.92;;;;;;;;;;4966036;28;20054;-69
2022/08/19 11:46:51;;;;;;;6.78;3.50;;;;;;;;;;4964715;28;20077;-69
2022/08/19 11:49:18;;;;;;;3.95;3.55;;;;;;;;;;4967121;28;21440;-69
2022/08/19 11:51:44;;;;;;;4.25;3.63;;;;;;;;;;4963585;28;20168;-68
2022/08/19 11:54:11;;;;;;;5.28;3.78;;;;;;;;;;4964711;28;20122;-68
2022/08/19 11:56:37;;;;;;;6.85;4.00;;;;;;;;;;4950148;28;20266;-70
2022/08/19 11:59:03;;;;;;;7.13;3.55;;;;;;;;;;4963789;28;20485;-68
2022/08/19 12:01:29;;;;;;;3.80;3.28;;;;;;;;;;4963455;28;20023;-69
2022/08/19 12:03:56;;;;;;;4.65;3.50;;;;;;;;;;4969513;28;20069;-69
2022/08/19 12:06:28;;;;;;;6.43;3.30;;;;;;;;;;4963718;28;20035;-70
2022/08/19 12:08:57;;;;;;;5.18;3.40;;;;;;;;;;4966126;28;20050;-71
2022/08/19 12:11:23;;;;;;;5.85;3.30;;;;;;;;;;4971808;28;20141;-71
2022/08/19 12:13:49;;;;;;;5.40;3.38;;;;;;;;;;4967346;28;20097;-69
2022/08/19 12:16:19;;;;;;;5.70;3.58;;;;;;;;;;4966795;28;20046;-69
2022/08/19 12:18:48;;;;;;;5.85;3.88;;;;;;;;;;4966237;28;21049;-70
2022/08/19 12:21:20;;;;;;;3.55;3.35;;;;;;;;;;4969960;28;20121;-69
2022/08/19 12:23:48;;;;;;;5.50;3.95;;;;;;;;;;4967088;28;20066;-70
2022/08/19 12:26:13;;;;;;;6.95;3.53;;;;;;;;;;4969568;28;20406;-69
2022/08/19 12:28:39;;;;;;;4.75;3.83;;;;;;;;;;4968474;28;20031;-69
2022/08/19 12:31:05;;;;;;;5.38;3.92;;;;;;;;;;4965956;28;20097;-69
2022/08/19 12:33:32;;;;;;;4.10;3.70;;;;;;;;;;4969244;28;20118;-69
2022/08/19 12:36:03;;;;;;;4.38;3.50;;;;;;;;;;4965394;28;20082;-70
2022/08/19 12:38:29;;;;;;;5.43;3.50;;;;;;;;;;4968181;28;20066;-69
2022/08/19 12:40:55;;;;;;;4.43;3.50;;;;;;;;;;4968221;28;20794;-71
2022/08/19 12:43:20;;;;;;;4.45;3.58;;;;;;;;;;4968148;28;20038;-69
2022/08/19 12:45:45;;;;;;;4.93;3.60;;;;;;;;;;4963186;28;20042;-69
2022/08/19 12:48:11;;;;;;;4.88;3.83;;;;;;;;;;4953084;28;20113;-70
2022/08/19 12:50:45;;;;;;;5.15;3.70;;;;;;;;;;4965074;28;20075;-68
2022/08/19 12:53:11;;;;;;;4.90;4.40;;;;;;;;;;4968187;28;20034;-68
2022/08/19 12:55:36;;;;;;;4.10;3.80;;;;;;;;;;4966024;28;20046;-69
2022/08/19 12:58:02;;;;;;;3.83;3.42;;;;;;;;;;4964801;28;20077;-69
2022/08/19 13:00:28;;;;;;;4.88;3.80;;;;;;;;;;4964318;28;20062;-69
2022/08/19 13:02:53;;;;;;;4.75;3.83;;;;;;;;;;4968272;28;20043;-69
2022/08/19 13:05:24;;;;;;;7.35;3.78;;;;;;;;;;4965978;28;20039;-69
2022/08/19 13:07:54;;;;;;;4.93;3.70;;;;;;;;;;4966388;28;20034;-68
2022/08/19 13:10:20;;;;;;;4.43;3.28;;;;;;;;;;4968381;28;20113;-68
2022/08/19 13:12:48;;;;;;;3.78;3.33;;;;;;;;;;4965921;28;20039;-69
2022/08/19 13:15:17;;;;;;;3.42;3.13;;;;;;;;;;4949218;28;20074;-69
2022/08/19 13:17:43;;;;;;;4.65;3.20;;;;;;;;;;4970592;28;20038;-69
2022/08/19 13:20:10;;;;;;;4.10;3.40;;;;;;;;;;4966054;28;20514;-68
2022/08/19 13:22:36;;;;;;;4.13;3.33;;;;;;;;;;4965237;28;20035;-69
2022/08/19 13:25:03;;;;;;;5.03;2.80;;;;;;;;;;4969935;28;20054;-69
2022/08/19 13:27:29;;;;;;;4.93;3.17;;;;;;;;;;4962900;28;20057;-69
2022/08/19 13:35:22;;;;;;;3.92;3.45;;;;;;;;;;4964472;28;20057;-69
2022/08/19 13:37:48;;;;;;;4.38;3.03;;;;;;;;;;4959539;28;20038;-69
2022/08/19 13:40:18;;;;;;;5.32;3.78;;;;;;;;;;4962660;28;20039;-69
2022/08/19 13:42:49;;;;;;;8.90;3.60;;;;;;;;;;4963149;28;20058;-68
2022/08/19 13:45:17;;;;;;;3.88;3.40;;;;;;;;;;4964538;28;20571;-69
2022/08/19 13:47:47;;;;;;;4.43;3.45;;;;;;;;;;4959195;28;20506;-68
2022/08/19 13:50:16;;;;;;;4.13;3.35;;;;;;;;;;4963286;28;20096;-68
2022/08/19 13:52:42;;;;;;;4.70;4.07;;;;;;;;;;4965996;28;20050;-68
2022/08/19 13:55:10;;;;;;;5.03;4.32;;;;;;;;;;4967646;28;20573;-68
2022/08/19 13:57:38;;;;;;;8.07;4.22;;;;;;;;;;4967945;28;20106;-68
2022/08/19 14:00:07;;;;;;;3.97;3.65;;;;;;;;;;4968154;28;20039;-68
2022/08/19 14:02:33;;;;;;;4.50;3.55;;;;;;;;;;4967614;28;20058;-69
2022/08/19 14:04:58;;;;;;;5.00;3.47;;;;;;;;;;4963257;28;20034;-69
2022/08/19 14:07:23;;;;;;;3.83;3.42;;;;;;;;;;4967015;28;21282;-69
2022/08/19 14:09:50;;;;;;;4.90;3.55;;;;;;;;;;4966463;28;20039;-69
2022/08/19 14:12:19;;;;;;;4.82;3.75;;;;;;;;;;4967352;28;20042;-68
2022/08/19 14:14:45;;;;;;;4.68;3.22;;;;;;;;;;4947766;28;20117;-70
2022/08/19 14:17:10;;;;;;;5.22;4.00;;;;;;;;;;4962354;28;20041;-68
2022/08/19 14:19:36;;;;;;;4.00;3.60;;;;;;;;;;4944072;28;20054;-68
2022/08/19 14:22:01;;;;;;;5.60;3.90;;;;;;;;;;4959469;28;20113;-69
2022/08/19 14:24:27;;;;;;;4.47;4.05;;;;;;;;;;4963628;28;20047;-69
2022/08/19 14:26:53;;;;;;;4.05;3.60;;;;;;;;;;4961023;28;20046;-69
2022/08/19 14:29:18;;;;;;;3.75;3.38;;;;;;;;;;4962596;28;20049;-69
2022/08/19 14:31:44;;;;;;;6.10;3.38;;;;;;;;;;4961116;28;20081;-67
2022/08/19 14:34:09;;;;;;;3.72;3.20;;;;;;;;;;4960922;28;20081;-70
2022/08/19 14:36:36;;;;;;;4.13;3.60;;;;;;;;;;4956867;28;20125;-67
2022/08/19 14:39:02;;;;;;;4.20;3.40;;;;;;;;;;4963013;28;20667;-68
2022/08/19 14:41:28;;;;;;;5.60;3.75;;;;;;;;;;4961835;28;20095;-67
2022/08/19 14:43:54;;;;;;;5.60;3.67;;;;;;;;;;4959902;28;20390;-68
2022/08/19 14:46:23;;;;;;;3.55;3.25;;;;;;;;;;4960640;28;20451;-69
2022/08/19 14:48:49;;;;;;;3.78;3.47;;;;;;;;;;4952238;28;20050;-69
2022/08/19 14:51:15;;;;;;;3.90;3.22;;;;;;;;;;4962560;28;20042;-67
2022/08/19 14:53:41;;;;;;;7.18;3.45;;;;;;;;;;4956962;28;20023;-69
2022/08/19 14:56:13;;;;;;;6.35;3.28;;;;;;;;;;4963459;28;20532;-69
2022/08/19 14:58:40;;;;;;;;;;;;;;;;;;4957274;28;20467;-69